Time;durP1;ratioP1;P1;durP2;ratioP2;P2;SDS_P1;SDS_P2;PMS_P1;PMS_P2;Temp;Humidity;BMP_temperature;BMP_pressure;BME280_temperature;BME280_humidity;BME280_pressure;Samples;Min_cycle;Max_cycle;Signal;HPM_P1;HPM_P2
2024/01/30 00:12:27;;;;;;;8.83;5.40;;;;;;;5.39;100.00;102682.28;31743509;27;20145;-78
2024/01/30 00:27:29;;;;;;;11.43;5.43;;;;;;;5.34;100.00;102678.97;31723879;27;20044;-78
2024/01/30 00:42:31;;;;;;;9.97;5.80;;;;;;;5.32;100.00;102675.78;31743008;27;20051;-78
2024/01/30 00:57:33;;;;;;;11.47;5.57;;;;;;;4.83;100.00;102664.44;31702014;27;20135;-78
2024/01/30 01:12:35;;;;;;;7.27;3.73;;;;;;;4.74;100.00;102667.13;31719895;28;20102;-77
2024/01/30 01:27:40;;;;;;;8.83;4.87;;;;;;;4.59;100.00;102664.09;31692660;28;20047;-77
2024/01/30 01:42:43;;;;;;;9.87;5.30;;;;;;;4.60;100.00;102676.44;31714612;28;20048;-75
2024/01/30 01:57:45;;;;;;;11.27;6.53;;;;;;;4.80;100.00;102665.06;31727768;28;20076;-76
2024/01/30 02:12:48;;;;;;;15.87;6.27;;;;;;;4.71;100.00;102661.59;31723933;28;20060;-77
2024/01/30 02:27:50;;;;;;;12.10;6.93;;;;;;;4.67;100.00;102679.47;31752418;27;20064;-77
2024/01/30 02:42:52;;;;;;;18.67;7.77;;;;;;;4.54;100.00;102666.94;31713804;27;20043;-75
2024/01/30 02:57:54;;;;;;;20.83;8.47;;;;;;;4.54;100.00;102658.88;31726942;27;20075;-77
2024/01/30 03:12:56;;;;;;;20.43;8.63;;;;;;;4.91;100.00;102644.81;31736793;27;20100;-77
2024/01/30 03:27:58;;;;;;;22.27;10.13;;;;;;;4.73;100.00;102644.00;31722707;27;20052;-77
2024/01/30 03:43:00;;;;;;;24.47;10.20;;;;;;;4.33;100.00;102643.34;31710280;27;20130;-77
2024/01/30 03:58:02;;;;;;;30.07;11.90;;;;;;;3.97;100.00;102640.09;31710947;27;20139;-77
2024/01/30 04:13:05;;;;;;;24.17;12.17;;;;;;;3.83;100.00;102628.66;31705727;27;20043;-78
2024/01/30 04:28:13;;;;;;;30.30;12.97;;;;;;;4.51;100.00;102617.25;31714744;27;20397;-76
2024/01/30 04:43:15;;;;;;;29.70;13.67;;;;;;;3.58;100.00;102617.50;31708756;27;20058;-76
2024/01/30 04:58:17;;;;;;;33.63;14.57;;;;;;;3.41;100.00;102609.38;31702680;27;20067;-78
2024/01/30 05:13:20;;;;;;;28.73;12.67;;;;;;;3.41;100.00;102612.84;31696892;28;20485;-77
2024/01/30 05:28:22;;;;;;;28.20;12.90;;;;;;;3.31;100.00;102613.09;31713755;28;20039;-79
2024/01/30 05:43:24;;;;;;;36.73;12.50;;;;;;;3.66;100.00;102622.13;31714044;28;20416;-78
2024/01/30 05:58:27;;;;;;;28.67;11.20;;;;;;;4.91;100.00;102615.19;31715055;27;20138;-77
2024/01/30 06:13:31;;;;;;;25.80;11.63;;;;;;;6.63;100.00;102607.41;31745748;27;20119;-76
2024/01/30 06:28:33;;;;;;;34.87;12.37;;;;;;;8.09;94.98;102621.19;31726319;27;20374;-76
2024/01/30 06:43:35;;;;;;;28.23;12.33;;;;;;;7.85;96.77;102632.81;31722856;27;20641;-76
2024/01/30 06:58:37;;;;;;;24.90;10.20;;;;;;;8.02;99.41;102621.78;31728375;27;20054;-78
2024/01/30 07:13:39;;;;;;;25.67;10.07;;;;;;;8.98;87.19;102621.06;31724250;27;20105;-79
2024/01/30 07:28:42;;;;;;;32.00;11.43;;;;;;;8.27;84.38;102603.56;31723106;27;20083;-77
2024/01/30 07:43:44;;;;;;;42.10;17.63;;;;;;;9.90;72.58;102591.66;31732558;27;20078;-77
2024/01/30 07:58:46;;;;;;;41.80;15.87;;;;;;;10.16;66.83;102601.09;31725887;27;20075;-76
2024/01/30 08:13:48;;;;;;;23.50;10.10;;;;;;;9.72;66.44;102609.41;31723155;27;20419;-78
2024/01/30 08:28:51;;;;;;;20.07;8.27;;;;;;;10.80;60.90;102597.03;31698614;27;20484;-78
2024/01/30 08:43:54;;;;;;;18.93;8.33;;;;;;;9.73;64.61;102597.44;31713466;27;20052;-77
2024/01/30 08:58:56;;;;;;;22.97;8.57;;;;;;;10.74;59.14;102571.28;31705459;27;20043;-77
2024/01/30 09:13:58;;;;;;;16.40;7.50;;;;;;;11.98;54.29;102556.25;31709792;28;20149;-76
2024/01/30 09:29:00;;;;;;;15.20;7.27;;;;;;;11.86;52.12;102533.53;31696281;28;20070;-78
2024/01/30 09:44:04;;;;;;;14.37;6.87;;;;;;;11.75;51.34;102521.69;31719306;27;20044;-76
2024/01/30 09:59:06;;;;;;;18.67;7.67;;;;;;;12.93;48.71;102508.28;31728203;27;20469;-78
2024/01/30 10:14:10;;;;;;;15.13;6.40;;;;;;;13.00;48.09;102480.28;31733606;27;20055;-80
2024/01/30 10:29:13;;;;;;;19.00;9.50;;;;;;;13.02;47.69;102477.19;31724796;27;20043;-76
2024/01/30 10:44:19;;;;;;;23.97;11.33;;;;;;;13.34;46.64;102477.44;31732351;27;20480;-76
2024/01/30 10:59:24;;;;;;;18.73;10.70;;;;;;;13.57;46.13;102458.88;31717309;27;20043;-76
2024/01/30 11:14:28;;;;;;;16.70;7.77;;;;;;;13.56;45.28;102462.78;31727781;27;20047;-77
2024/01/30 11:29:30;;;;;;;15.43;8.43;;;;;;;13.56;46.37;102446.41;31706565;27;20487;-76
2024/01/30 11:44:33;;;;;;;16.27;8.23;;;;;;;13.82;44.19;102421.56;31690562;27;20122;-75
2024/01/30 11:59:35;;;;;;;11.33;6.33;;;;;;;13.40;45.18;102418.66;31687533;27;20059;-77
2024/01/30 12:14:39;;;;;;;17.63;6.50;;;;;;;13.70;44.15;102407.50;31704153;27;20054;-74
2024/01/30 12:29:42;;;;;;;11.00;5.80;;;;;;;14.81;42.67;102390.91;31678446;28;20075;-79
2024/01/30 12:44:44;;;;;;;17.40;6.60;;;;;;;14.23;41.98;102374.84;31718067;28;20048;-77
2024/01/30 12:59:47;;;;;;;13.73;6.93;;;;;;;10.24;51.35;102372.13;31697118;28;20082;-76
2024/01/30 13:14:49;;;;;;;14.37;6.47;;;;;;;8.66;66.03;102380.00;31697738;28;20044;-75
2024/01/30 13:29:53;;;;;;;14.20;6.43;;;;;;;8.43;72.19;102387.94;31705361;28;20055;-78
2024/01/30 13:44:55;;;;;;;15.37;8.03;;;;;;;8.49;78.90;102385.78;31699966;28;20127;-79
2024/01/30 13:59:57;;;;;;;15.30;8.30;;;;;;;7.78;85.59;102378.44;31690442;28;20056;-76
2024/01/30 14:14:59;;;;;;;17.73;7.90;;;;;;;7.47;90.38;102379.09;31698167;28;20059;-75
2024/01/30 14:30:03;;;;;;;21.37;9.10;;;;;;;7.28;97.23;102368.09;31703532;27;20438;-75
2024/01/30 14:45:06;;;;;;;17.83;7.63;;;;;;;7.10;100.00;102360.22;31718682;27;20686;-75
2024/01/30 15:00:25;;;;;;;18.20;8.57;;;;;;;6.80;100.00;102345.41;31741193;27;20047;-79
2024/01/30 15:15:30;;;;;;;16.60;8.37;;;;;;;6.59;100.00;102347.44;31713709;27;20140;-79
2024/01/30 15:30:32;;;;;;;29.33;9.73;;;;;;;6.46;100.00;102350.09;31732548;27;20048;-79
2024/01/30 15:45:35;;;;;;;28.67;12.13;;;;;;;6.24;100.00;102345.13;31720821;27;20052;-80
2024/01/30 16:00:43;;;;;;;20.50;9.97;;;;;;;7.41;100.00;102321.00;31739504;27;20053;-83
2024/01/30 16:15:46;;;;;;;18.37;8.50;;;;;;;7.15;100.00;102330.28;31745347;27;20047;-79
2024/01/30 16:30:51;;;;;;;17.90;9.30;;;;;;;6.37;100.00;102327.84;31745801;27;20056;-87
2024/01/30 16:46:04;;;;;;;20.00;9.13;;;;;;;5.57;100.00;102311.19;31788803;27;20464;-81
2024/01/30 17:01:07;;;;;;;21.53;10.33;;;;;;;5.48;100.00;102303.19;31736355;27;20093;-82
2024/01/30 17:16:09;;;;;;;14.97;6.70;;;;;;;5.42;100.00;102296.44;31743591;27;20218;-79
2024/01/30 17:31:13;;;;;;;14.40;6.83;;;;;;;5.49;100.00;102303.97;31763814;28;20059;-79
2024/01/30 17:46:15;;;;;;;19.57;6.73;;;;;;;6.24;100.00;102295.78;31730806;28;20050;-79
2024/01/30 18:01:18;;;;;;;17.60;6.83;;;;;;;6.29;100.00;102293.66;31738269;27;20052;-78
2024/01/30 18:16:21;;;;;;;11.30;6.17;;;;;;;6.33;100.00;102291.88;31721696;27;20109;-77
2024/01/30 18:31:24;;;;;;;13.93;6.10;;;;;;;6.27;100.00;102274.34;31709113;27;20112;-78
2024/01/30 18:46:26;;;;;;;15.67;7.40;;;;;;;6.02;100.00;102275.41;31757666;27;20054;-76
2024/01/30 19:01:28;;;;;;;16.13;7.90;;;;;;;6.04;100.00;102273.97;31719948;27;20572;-78
2024/01/30 19:16:30;;;;;;;14.63;6.93;;;;;;;5.29;100.00;102264.38;31732154;27;20103;-77
2024/01/30 19:31:33;;;;;;;19.23;7.73;;;;;;;6.03;100.00;102255.44;31707165;27;20060;-77
2024/01/30 19:46:37;;;;;;;15.40;7.33;;;;;;;5.22;100.00;102245.25;31736408;27;20059;-77
2024/01/30 20:01:39;;;;;;;16.43;8.03;;;;;;;5.18;100.00;102228.19;31727810;27;20108;-77
2024/01/30 20:16:42;;;;;;;17.63;7.70;;;;;;;5.28;100.00;102217.00;31708035;27;20769;-75
2024/01/30 20:31:45;;;;;;;19.20;8.30;;;;;;;5.40;100.00;102219.75;31707117;27;20144;-76
2024/01/30 20:46:47;;;;;;;20.03;7.73;;;;;;;5.28;100.00;102211.63;31698706;27;20079;-76
2024/01/30 21:01:49;;;;;;;17.43;8.30;;;;;;;4.94;100.00;102208.13;31705318;27;20135;-76
2024/01/30 21:16:51;;;;;;;16.50;8.30;;;;;;;4.73;100.00;102193.84;31702020;27;20052;-75
2024/01/30 21:31:53;;;;;;;18.10;7.90;;;;;;;4.83;100.00;102182.72;31705049;27;20048;-75
2024/01/30 21:46:56;;;;;;;14.00;7.07;;;;;;;4.76;100.00;102177.06;31733324;27;20044;-79
2024/01/30 22:01:58;;;;;;;16.17;7.83;;;;;;;4.76;100.00;102174.38;31731103;27;20143;-75
2024/01/30 22:17:01;;;;;;;18.77;9.10;;;;;;;5.41;100.00;102175.56;31714621;27;20447;-77
2024/01/30 22:32:04;;;;;;;17.40;7.30;;;;;;;4.74;100.00;102155.06;31715158;27;20800;-77
2024/01/30 22:47:06;;;;;;;18.67;7.80;;;;;;;4.61;100.00;102167.69;31736636;27;20047;-76
2024/01/30 23:02:08;;;;;;;18.23;7.87;;;;;;;5.07;100.00;102155.91;31704568;27;20040;-75
2024/01/30 23:17:11;;;;;;;16.77;7.70;;;;;;;5.09;100.00;102167.13;31703196;27;20047;-75
2024/01/30 23:32:13;;;;;;;18.43;8.27;;;;;;;4.62;100.00;102157.69;31718360;27;20460;-77
2024/01/30 23:47:26;;;;;;;19.13;8.83;;;;;;;4.88;100.00;102150.22;31718457;27;20043;-76
